Ostatnio dodane

Tytuł Autor Odpowiedzi Last Postikona sortowania Odsłon łącznie Odsłon dzisiaj
Cyfrowy Przedwzmacniacz mirley 102 2014-08-28 21:21 36 659 5 739
Sterownik C.O. z monitoringiem EDC 3 2014-08-27 16:35 2 523 1 241
AVR Odtwarzacz wav demsy1 2 2014-08-16 12:42 1 756 957
problem ze wzmacniaczem na Tda 1905 Misiek 6 2014-08-09 20:52 10 981 1 494
Timer+pomiar temperatury marekszy 14 2014-07-19 20:50 1 866 930
Przetwornik ADC maro 7 2014-07-16 10:11 2 099 1 022
Mirley.net Uruchomiona mirley 2014-07-16 08:05 2 583 1 317
Przerwanie operacji WAIT bascom barni 1 2014-07-10 14:08 2 075 1 122
Nowy soft przez USB/RS232 czyli BOOTLOADER EDC 13 2014-07-03 08:34 4 167 2 263
Zapis i odczyt do eeprom demsy1 6 2014-06-27 11:35 2 150 1 122
Regulator PWM DC 15A Chester 15 2014-06-25 18:00 4 064 1 830
AVT1460 Chester 2 2014-06-25 17:57 1 730 937
Bascom-PWM nanab 88 2014-06-24 05:21 34 503 5 048
Przerwania INT0 i INT1 jacek1987-1987 21 2014-06-22 22:04 3 622 1 829
Zwiększenie zasięgu działania czujnika na fototranzystorze i diodzie IR jacek1987-1987 17 2014-06-17 22:46 3 466 1 855
Big Endian w atmega32 wchpikus 2 2014-06-14 11:57 2 878 1 510
Modyfikacja kierownicy PC MSideWinder FFB (pomysły) Radzioo 5 2014-06-13 18:15 4 662 2 429
termometr_uniwersalny wersja na 2051 kaktus 4 2014-06-07 16:29 3 648 997
libs description w Eagle kaktus 1 2014-06-07 16:12 2 859 1 569
Unitra Fonica PW 9013 pali się Radek988 2 2014-06-07 08:50 5 381 1 621
J-057 Wzmacniacz 50W mono. paweł182 28 2014-06-06 22:09 2 321 1 126
Jakie jest zasilanie końcówki mocy 2N3055.? paweł182 3 2014-05-26 18:35 4 384 1 771
problem z basem w lewym kanale DIORA WS-442 paweł182 13 2014-05-22 13:03 6 521 1 751
Koszmar stróża :D EDC 2014-05-17 16:31 1 801 978
Radio samochodowe - problem Misiek 2 2014-05-10 22:12 3 808 1 505